Time;durP1;ratioP1;P1;durP2;ratioP2;P2;SDS_P1;SDS_P2;PMS_P1;PMS_P2;Temp;Humidity;BMP_temperature;BMP_pressure;BME280_temperature;BME280_humidity;BME280_pressure;Samples;Min_cycle;Max_cycle;Signal;HPM_P1;HPM_P2
2023/10/25 00:02:07;;;;;;;14.13;10.17;;;8.50;99.90;;;;;;5079441;28;20652;-71
2023/10/25 00:04:33;;;;;;;12.33;10.10;;;8.50;99.90;;;;;;5092459;28;20158;-72
2023/10/25 00:06:59;;;;;;;10.63;9.50;;;8.50;99.90;;;;;;5092801;28;20252;-71
2023/10/25 00:09:24;;;;;;;10.63;9.37;;;8.40;99.90;;;;;;5092587;28;20252;-71
2023/10/25 00:11:50;;;;;;;10.77;9.70;;;8.40;99.90;;;;;;5078908;28;20186;-71
2023/10/25 00:14:16;;;;;;;16.67;10.10;;;8.40;99.90;;;;;;5072197;28;20169;-71
2023/10/25 00:16:41;;;;;;;12.10;9.03;;;8.40;99.90;;;;;;5078516;28;20212;-71
2023/10/25 00:19:07;;;;;;;13.03;10.07;;;8.40;99.90;;;;;;5092560;28;20587;-72
2023/10/25 00:21:33;;;;;;;13.70;9.83;;;8.40;99.90;;;;;;5092485;28;20165;-71
2023/10/25 00:23:59;;;;;;;11.80;10.17;;;8.40;99.90;;;;;;5092031;28;20246;-71
2023/10/25 00:26:24;;;;;;;11.40;9.90;;;8.40;99.90;;;;;;5092424;28;20250;-71
2023/10/25 00:28:50;;;;;;;11.33;9.73;;;8.40;99.90;;;;;;5092462;28;20229;-71
2023/10/25 00:31:16;;;;;;;13.20;9.47;;;8.40;99.90;;;;;;5082361;28;20174;-71
2023/10/25 00:33:42;;;;;;;13.17;9.70;;;8.30;99.90;;;;;;5091796;28;20272;-71
2023/10/25 00:36:07;;;;;;;13.93;10.63;;;8.30;99.90;;;;;;5092041;28;20765;-71
2023/10/25 00:38:33;;;;;;;11.93;10.10;;;8.30;99.90;;;;;;5092127;28;20173;-72
2023/10/25 00:40:58;;;;;;;17.20;10.87;;;8.30;99.90;;;;;;5092152;28;20200;-71
2023/10/25 00:43:24;;;;;;;13.47;11.53;;;8.20;99.90;;;;;;5091672;28;20276;-72
2023/10/25 00:46:00;;;;;;;12.00;10.80;;;8.20;99.90;;;;;;5076228;28;20653;-71
2023/10/25 00:48:28;;;;;;;12.63;10.40;;;8.20;99.90;;;;;;5071763;28;20228;-71
2023/10/25 00:50:54;;;;;;;11.03;9.90;;;8.20;99.90;;;;;;5071790;28;20174;-71
2023/10/25 00:53:20;;;;;;;17.33;10.73;;;8.20;99.90;;;;;;5071387;28;20194;-72
2023/10/25 00:55:46;;;;;;;12.13;10.67;;;8.20;99.90;;;;;;5071483;28;20205;-72
2023/10/25 00:58:12;;;;;;;14.87;9.50;;;8.20;99.90;;;;;;5071571;28;20192;-72
2023/10/25 01:00:38;;;;;;;17.00;10.87;;;8.20;99.90;;;;;;5071551;28;20170;-72
2023/10/25 01:03:07;;;;;;;16.70;10.13;;;8.20;99.90;;;;;;5090127;28;20243;-72
2023/10/25 01:05:33;;;;;;;14.07;10.43;;;8.20;99.90;;;;;;5091777;28;20188;-72
2023/10/25 01:07:58;;;;;;;10.93;9.93;;;8.20;99.90;;;;;;5091828;28;20248;-72
2023/10/25 01:10:25;;;;;;;14.10;10.23;;;8.20;99.90;;;;;;5091687;28;20169;-72
2023/10/25 01:12:50;;;;;;;12.00;9.90;;;8.20;99.90;;;;;;5083619;28;20209;-72
2023/10/25 01:15:23;;;;;;;12.57;10.40;;;8.20;99.90;;;;;;5071371;28;20541;-72
2023/10/25 01:17:48;;;;;;;12.10;10.20;;;8.20;99.90;;;;;;5071316;28;20170;-73
2023/10/25 01:20:14;;;;;;;12.87;9.97;;;8.20;99.90;;;;;;5071546;28;20166;-72
2023/10/25 01:22:39;;;;;;;13.07;10.87;;;8.20;99.90;;;;;;5071147;28;20222;-71
2023/10/25 01:25:06;;;;;;;12.40;9.80;;;8.20;99.90;;;;;;5071298;28;20568;-71
2023/10/25 01:27:31;;;;;;;11.67;9.77;;;8.20;99.90;;;;;;5087617;28;20245;-71
2023/10/25 01:29:57;;;;;;;12.70;10.43;;;8.20;99.90;;;;;;5090830;28;20173;-72
2023/10/25 01:32:22;;;;;;;16.33;10.80;;;8.20;99.90;;;;;;5091414;28;20557;-71
2023/10/25 01:34:48;;;;;;;11.83;10.63;;;8.20;99.90;;;;;;5089142;28;20208;-71
2023/10/25 01:37:14;;;;;;;13.97;10.30;;;8.20;99.90;;;;;;5091402;28;20655;-72
2023/10/25 01:39:39;;;;;;;12.70;10.90;;;8.20;99.90;;;;;;5089857;28;20177;-72
2023/10/25 01:42:05;;;;;;;16.13;10.70;;;8.20;99.90;;;;;;5071062;28;20194;-71
2023/10/25 01:44:32;;;;;;;11.80;10.60;;;8.20;99.90;;;;;;5070948;28;20170;-72
2023/10/25 01:46:57;;;;;;;12.37;10.83;;;8.20;99.90;;;;;;5071173;28;20173;-71
2023/10/25 01:49:23;;;;;;;11.13;10.03;;;8.20;99.90;;;;;;5071214;28;20166;-72
2023/10/25 01:51:49;;;;;;;11.47;10.37;;;8.20;99.90;;;;;;5071029;28;20216;-72
2023/10/25 01:54:14;;;;;;;13.17;9.13;;;8.20;99.90;;;;;;5076066;28;20204;-72
2023/10/25 01:56:40;;;;;;;10.87;9.77;;;8.30;99.90;;;;;;5092239;28;20259;-72
2023/10/25 01:59:06;;;;;;;17.23;9.77;;;8.30;99.90;;;;;;5095696;28;20181;-73
2023/10/25 02:01:31;;;;;;;12.63;9.93;;;8.30;99.90;;;;;;5094792;28;20684;-72
2023/10/25 02:03:57;;;;;;;10.30;9.10;;;8.30;99.90;;;;;;5094736;28;20276;-73
2023/10/25 02:06:23;;;;;;;14.27;8.47;;;8.20;99.90;;;;;;5095224;28;20172;-72
2023/10/25 02:08:48;;;;;;;13.40;9.57;;;8.20;99.90;;;;;;5085037;28;20253;-73
2023/10/25 02:11:15;;;;;;;9.83;8.90;;;8.20;99.90;;;;;;5074853;28;20174;-72
2023/10/25 02:13:41;;;;;;;9.67;8.67;;;8.20;99.90;;;;;;5074787;28;20688;-72
2023/10/25 02:16:17;;;;;;;9.30;8.33;;;8.20;99.90;;;;;;5074752;28;20202;-72
2023/10/25 02:18:43;;;;;;;8.90;8.07;;;8.20;99.90;;;;;;5073256;28;20481;-72
2023/10/25 02:21:10;;;;;;;11.77;8.37;;;8.20;99.90;;;;;;5074648;28;20190;-72
2023/10/25 02:23:36;;;;;;;10.03;8.23;;;8.10;99.90;;;;;;5089749;28;20197;-72
2023/10/25 02:26:02;;;;;;;9.57;8.43;;;8.10;99.90;;;;;;5094315;28;20180;-73
2023/10/25 02:28:27;;;;;;;8.73;7.80;;;8.10;99.90;;;;;;5095017;28;20166;-73
2023/10/25 02:30:53;;;;;;;11.40;8.90;;;8.10;99.90;;;;;;5095289;28;20671;-73
2023/10/25 02:33:19;;;;;;;8.97;7.80;;;8.20;99.90;;;;;;5094552;28;20196;-73
2023/10/25 02:35:44;;;;;;;9.87;7.53;;;8.20;99.90;;;;;;5093782;28;20683;-74
2023/10/25 02:38:10;;;;;;;9.37;8.27;;;8.20;99.90;;;;;;5074596;28;20166;-73
2023/10/25 02:40:36;;;;;;;8.27;7.30;;;8.20;99.90;;;;;;5074347;28;20174;-73
2023/10/25 02:43:01;;;;;;;9.67;7.83;;;8.20;99.90;;;;;;5074194;28;20182;-73
2023/10/25 02:45:27;;;;;;;9.73;7.63;;;8.20;99.90;;;;;;5074348;28;20642;-72
2023/10/25 02:47:56;;;;;;;9.57;8.07;;;8.20;99.90;;;;;;5074526;28;20170;-73
2023/10/25 02:50:22;;;;;;;11.67;9.00;;;8.20;99.90;;;;;;5079055;28;20591;-73
2023/10/25 02:52:48;;;;;;;14.90;7.80;;;8.20;99.90;;;;;;5094529;28;20240;-74
2023/10/25 02:55:15;;;;;;;8.23;7.43;;;8.20;99.90;;;;;;5094330;28;20538;-73
2023/10/25 02:57:41;;;;;;;10.83;7.77;;;8.20;99.90;;;;;;5094210;28;20170;-73
2023/10/25 03:00:10;;;;;;;9.93;8.17;;;8.20;99.90;;;;;;5094551;28;20558;-73
2023/10/25 03:02:36;;;;;;;10.00;7.80;;;8.20;99.90;;;;;;5093125;28;20602;-73
2023/10/25 03:05:02;;;;;;;9.10;7.23;;;8.20;99.90;;;;;;5094193;28;20234;-73
2023/10/25 03:07:28;;;;;;;10.80;8.03;;;8.20;99.90;;;;;;5093452;28;20183;-73
2023/10/25 03:09:53;;;;;;;8.27;7.47;;;8.10;99.90;;;;;;5092751;28;20173;-74
2023/10/25 03:12:19;;;;;;;9.20;7.90;;;8.10;99.90;;;;;;5074986;28;20221;-73
2023/10/25 03:14:44;;;;;;;10.50;8.10;;;8.10;99.90;;;;;;5072946;28;20206;-74
2023/10/25 03:17:10;;;;;;;9.73;8.73;;;8.10;99.90;;;;;;5083672;28;20177;-73
2023/10/25 03:19:35;;;;;;;12.80;8.13;;;8.10;99.90;;;;;;5093203;28;20226;-73
2023/10/25 03:22:03;;;;;;;9.23;7.87;;;8.10;99.90;;;;;;5093265;28;20597;-73
2023/10/25 03:24:29;;;;;;;16.27;8.53;;;8.10;99.90;;;;;;5092375;28;20172;-73
2023/10/25 03:26:55;;;;;;;13.00;8.60;;;8.10;99.90;;;;;;5093983;28;20169;-74
2023/10/25 03:29:21;;;;;;;9.43;8.40;;;8.10;99.90;;;;;;5094629;28;20193;-73
2023/10/25 03:31:47;;;;;;;9.73;8.73;;;8.10;99.90;;;;;;5077838;28;20259;-73
2023/10/25 03:34:14;;;;;;;10.03;8.63;;;8.10;99.90;;;;;;5073094;28;20182;-73
2023/10/25 03:36:40;;;;;;;11.73;8.80;;;8.10;99.90;;;;;;5073164;28;20194;-74
2023/10/25 03:39:06;;;;;;;10.73;8.57;;;8.10;99.90;;;;;;5073281;28;20215;-73
2023/10/25 03:41:31;;;;;;;11.50;8.43;;;8.10;99.90;;;;;;5073183;28;20170;-73
2023/10/25 03:43:57;;;;;;;9.87;8.80;;;8.00;99.90;;;;;;5073020;28;20263;-73
2023/10/25 03:46:22;;;;;;;11.80;8.80;;;8.00;99.90;;;;;;5092920;28;20204;-72
2023/10/25 03:48:48;;;;;;;11.30;8.50;;;8.00;99.90;;;;;;5093616;28;20219;-73
2023/10/25 03:51:14;;;;;;;14.97;8.67;;;8.00;99.90;;;;;;5093109;28;20622;-72
2023/10/25 03:53:40;;;;;;;11.43;8.80;;;8.00;99.90;;;;;;5092464;28;20201;-72
2023/10/25 03:56:06;;;;;;;9.60;8.23;;;8.00;99.90;;;;;;5093250;28;20231;-72
2023/10/25 03:58:32;;;;;;;9.67;8.77;;;8.00;99.90;;;;;;5088776;28;20178;-72
2023/10/25 04:00:58;;;;;;;11.33;9.43;;;8.00;99.90;;;;;;5072976;28;20215;-72
2023/10/25 04:03:23;;;;;;;15.80;8.87;;;8.00;99.90;;;;;;5072786;28;20182;-72
2023/10/25 04:05:49;;;;;;;10.03;8.30;;;8.10;99.90;;;;;;5072648;28;20297;-72
2023/10/25 04:08:15;;;;;;;10.03;8.90;;;8.10;99.90;;;;;;5072879;28;20414;-72
2023/10/25 04:10:40;;;;;;;10.47;8.43;;;8.10;99.90;;;;;;5072679;28;20200;-72
2023/10/25 04:13:06;;;;;;;9.80;8.80;;;8.20;99.90;;;;;;5080948;28;20207;-72
2023/10/25 04:15:35;;;;;;;13.10;10.43;;;8.20;99.90;;;;;;5092753;28;20269;-71
2023/10/25 04:18:01;;;;;;;10.70;9.60;;;8.20;99.90;;;;;;5093048;28;20162;-72
2023/10/25 04:20:31;;;;;;;12.43;10.03;;;8.30;99.90;;;;;;5092114;28;20161;-72
2023/10/25 04:22:56;;;;;;;15.67;10.03;;;8.30;99.90;;;;;;5092661;28;20553;-73
2023/10/25 04:25:22;;;;;;;11.57;9.77;;;8.30;99.90;;;;;;5092809;28;20173;-73
2023/10/25 04:27:48;;;;;;;14.30;10.10;;;8.30;99.90;;;;;;5078135;28;20178;-73
2023/10/25 04:30:13;;;;;;;12.03;8.93;;;8.30;99.90;;;;;;5072414;28;20210;-72
2023/10/25 04:32:39;;;;;;;15.10;9.70;;;8.30;99.90;;;;;;5072095;28;20194;-73
2023/10/25 04:35:05;;;;;;;10.87;9.83;;;8.30;99.90;;;;;;5076912;28;20243;-72
2023/10/25 04:37:30;;;;;;;21.20;10.10;;;8.30;99.90;;;;;;5092507;28;20165;-72
2023/10/25 04:39:56;;;;;;;16.80;10.90;;;8.30;99.90;;;;;;5091028;28;20264;-72
2023/10/25 04:42:21;;;;;;;15.33;9.70;;;8.30;99.90;;;;;;5073803;28;20439;-72
2023/10/25 04:44:47;;;;;;;11.43;10.20;;;8.30;99.90;;;;;;5071464;28;20177;-72
2023/10/25 04:47:13;;;;;;;11.73;9.97;;;8.30;99.90;;;;;;5072161;28;20170;-72
2023/10/25 04:49:39;;;;;;;15.43;10.27;;;8.30;99.90;;;;;;5070432;28;20223;-73
2023/10/25 04:52:05;;;;;;;15.03;10.17;;;8.30;99.90;;;;;;5071937;28;20596;-72
2023/10/25 04:54:30;;;;;;;11.63;9.77;;;8.30;99.90;;;;;;5073870;28;20158;-72
2023/10/25 04:56:57;;;;;;;13.00;9.80;;;8.30;99.90;;;;;;5092196;28;20192;-72
2023/10/25 04:59:23;;;;;;;12.13;9.60;;;8.30;99.90;;;;;;5082350;28;20181;-72
2023/10/25 05:01:49;;;;;;;14.13;10.33;;;8.30;99.90;;;;;;5071380;28;20170;-72
2023/10/25 05:04:14;;;;;;;14.73;11.43;;;8.20;99.90;;;;;;5071597;28;20536;-72
2023/10/25 05:06:40;;;;;;;19.17;11.03;;;8.20;99.90;;;;;;5071467;28;20198;-72
2023/10/25 05:09:06;;;;;;;14.67;10.70;;;8.20;99.90;;;;;;5071720;28;20186;-72
2023/10/25 05:11:35;;;;;;;15.20;10.93;;;8.20;99.90;;;;;;5071840;28;20193;-72
2023/10/25 05:14:01;;;;;;;12.33;11.00;;;8.20;99.90;;;;;;5071288;28;20186;-72
2023/10/25 05:16:27;;;;;;;16.83;11.47;;;8.10;99.90;;;;;;5071569;28;20289;-73
2023/10/25 05:18:53;;;;;;;14.50;11.67;;;8.10;99.90;;;;;;5071607;28;20178;-72
2023/10/25 05:21:21;;;;;;;12.73;11.43;;;8.10;99.90;;;;;;5072062;28;20166;-72
2023/10/25 05:23:47;;;;;;;13.10;11.13;;;8.10;99.90;;;;;;5077948;28;20201;-73
2023/10/25 05:38:10;;;;;;;11.20;9.83;;;8.10;99.90;;;;;;5149643;27;20577;-74
2023/10/25 05:40:36;;;;;;;11.43;9.73;;;8.80;99.90;;;;;;5149010;27;20179;-73
2023/10/25 05:43:07;;;;;;;13.67;9.93;;;8.70;99.90;;;;;;5150403;27;20168;-73
2023/10/25 05:45:32;;;;;;;11.23;10.03;;;8.60;99.90;;;;;;5138815;27;20176;-73
2023/10/25 05:47:58;;;;;;;11.60;9.67;;;8.60;99.90;;;;;;5129131;27;20607;-73
2023/10/25 05:50:24;;;;;;;13.63;9.57;;;8.50;99.90;;;;;;5129407;27;20176;-73
2023/10/25 05:52:50;;;;;;;11.90;10.37;;;8.40;99.90;;;;;;5129450;27;20172;-73
2023/10/25 05:55:16;;;;;;;13.97;10.80;;;8.40;99.90;;;;;;5129293;27;20201;-73
2023/10/25 05:57:42;;;;;;;14.00;11.23;;;8.40;99.90;;;;;;5147934;27;20223;-73
2023/10/25 06:00:08;;;;;;;15.90;11.23;;;8.30;99.90;;;;;;5149856;27;20176;-73
2023/10/25 06:02:34;;;;;;;15.17;10.77;;;8.30;99.90;;;;;;5149891;27;20531;-73
2023/10/25 06:05:00;;;;;;;13.50;11.93;;;8.30;99.90;;;;;;5149276;27;20178;-73
2023/10/25 06:07:27;;;;;;;18.80;11.93;;;8.30;99.90;;;;;;5149157;27;20214;-73
2023/10/25 06:09:55;;;;;;;14.70;11.57;;;8.30;99.90;;;;;;5149496;27;20539;-73
2023/10/25 06:12:22;;;;;;;18.20;11.83;;;8.30;99.90;;;;;;5149306;27;20168;-73
2023/10/25 06:14:48;;;;;;;15.27;11.63;;;8.40;99.90;;;;;;5149105;27;20173;-73
2023/10/25 06:17:14;;;;;;;18.47;12.97;;;8.40;99.90;;;;;;5149878;27;20179;-73
2023/10/25 06:19:39;;;;;;;15.30;13.10;;;8.40;99.90;;;;;;5149271;27;20696;-73
2023/10/25 06:22:05;;;;;;;19.07;13.63;;;8.40;99.90;;;;;;5149381;27;20178;-73
2023/10/25 06:24:30;;;;;;;24.93;14.20;;;8.50;99.90;;;;;;5149146;27;20259;-73
2023/10/25 06:26:56;;;;;;;19.63;14.50;;;8.50;99.90;;;;;;5148942;27;20199;-73
2023/10/25 06:29:22;;;;;;;15.63;13.93;;;8.60;99.90;;;;;;5148964;27;20691;-72
2023/10/25 06:31:51;;;;;;;20.10;13.90;;;8.60;99.90;;;;;;5148998;27;20321;-73
2023/10/25 06:34:20;;;;;;;21.10;14.00;;;8.60;99.90;;;;;;5148900;27;20193;-73
2023/10/25 06:36:47;;;;;;;19.10;13.37;;;8.70;99.90;;;;;;5148651;27;20332;-73
2023/10/25 06:39:13;;;;;;;17.63;14.13;;;8.70;99.90;;;;;;5134890;27;20192;-73
2023/10/25 06:41:39;;;;;;;20.03;13.40;;;8.80;99.90;;;;;;5135429;27;20542;-73
2023/10/25 06:44:05;;;;;;;19.70;13.47;;;8.80;99.90;;;;;;5135268;27;20180;-73
2023/10/25 06:46:31;;;;;;;18.07;13.20;;;8.80;99.90;;;;;;5135099;27;20199;-73
2023/10/25 06:48:58;;;;;;;15.07;13.13;;;8.80;99.90;;;;;;5134298;27;20207;-73
2023/10/25 06:51:27;;;;;;;15.13;12.50;;;8.90;99.90;;;;;;5134758;27;20192;-73
2023/10/25 06:53:53;;;;;;;16.73;12.23;;;8.90;99.90;;;;;;5134847;27;20176;-73
2023/10/25 06:56:20;;;;;;;15.83;12.73;;;8.90;99.90;;;;;;5134618;27;20254;-73
2023/10/25 06:58:46;;;;;;;17.87;11.97;;;8.90;99.90;;;;;;5134055;27;20278;-73
2023/10/25 07:01:17;;;;;;;18.67;12.50;;;9.00;99.90;;;;;;5134535;27;20173;-73
2023/10/25 07:03:48;;;;;;;17.57;11.70;;;9.00;99.90;;;;;;5134644;27;20176;-73
2023/10/25 07:06:18;;;;;;;17.33;11.80;;;9.10;99.90;;;;;;5134750;27;20674;-72
2023/10/25 07:08:45;;;;;;;16.67;12.20;;;9.10;99.90;;;;;;5134470;27;20192;-73
2023/10/25 07:11:11;;;;;;;16.50;11.67;;;9.10;99.90;;;;;;5134435;27;20536;-72
2023/10/25 07:13:37;;;;;;;13.80;10.30;;;9.20;99.90;;;;;;5134567;27;20172;-72
2023/10/25 07:16:02;;;;;;;14.20;11.50;;;9.30;99.90;;;;;;5134512;27;20175;-73
2023/10/25 07:18:28;;;;;;;11.87;10.37;;;9.30;99.90;;;;;;5133950;27;20321;-72
2023/10/25 07:20:54;;;;;;;11.90;10.03;;;9.40;99.90;;;;;;5134558;27;20275;-72
2023/10/25 07:23:20;;;;;;;16.50;10.30;;;9.50;99.90;;;;;;5134440;27;20257;-72
2023/10/25 07:25:45;;;;;;;13.50;11.10;;;9.60;99.90;;;;;;5134118;27;20207;-72
2023/10/25 07:28:11;;;;;;;15.83;10.50;;;9.80;99.90;;;;;;5134007;27;20714;-73
2023/10/25 07:30:37;;;;;;;14.07;10.60;;;10.10;99.90;;;;;;5134387;27;20614;-73
2023/10/25 07:33:03;;;;;;;12.37;9.87;;;10.40;99.90;;;;;;5134266;27;20180;-73
2023/10/25 07:35:28;;;;;;;10.53;9.00;;;10.50;99.90;;;;;;5134093;27;20213;-72
2023/10/25 07:37:54;;;;;;;11.90;8.93;;;10.50;99.90;;;;;;5133373;27;20210;-72
2023/10/25 07:40:20;;;;;;;16.37;8.70;;;10.50;99.90;;;;;;5133467;27;20255;-73
2023/10/25 07:42:48;;;;;;;12.93;8.90;;;10.50;99.90;;;;;;5134095;27;20190;-73
2023/10/25 07:45:14;;;;;;;10.33;7.47;;;10.40;99.90;;;;;;5133915;27;20225;-72
2023/10/25 07:47:40;;;;;;;10.73;7.30;;;10.40;99.90;;;;;;5133683;27;20199;-72
2023/10/25 07:50:06;;;;;;;10.07;7.53;;;10.40;99.90;;;;;;5132856;27;20628;-73
2023/10/25 07:52:34;;;;;;;11.10;7.30;;;10.40;99.90;;;;;;5133937;27;20594;-72
2023/10/25 07:55:00;;;;;;;11.77;7.70;;;10.40;99.90;;;;;;5133718;27;20164;-73
2023/10/25 07:57:26;;;;;;;8.30;7.17;;;10.40;99.90;;;;;;5133305;27;20221;-73
2023/10/25 07:59:53;;;;;;;11.80;6.83;;;10.40;99.90;;;;;;5133609;27;20168;-72
2023/10/25 08:02:18;;;;;;;8.30;6.93;;;10.50;99.90;;;;;;5133566;27;20243;-73
2023/10/25 08:04:44;;;;;;;7.60;6.90;;;10.60;99.90;;;;;;5133610;27;20255;-73
2023/10/25 08:07:10;;;;;;;6.40;5.77;;;10.80;99.90;;;;;;5133395;27;20192;-72
2023/10/25 08:09:36;;;;;;;13.53;5.93;;;10.90;99.90;;;;;;5133407;27;20241;-73
2023/10/25 08:12:02;;;;;;;9.23;6.40;;;11.00;99.90;;;;;;5133326;27;20164;-73
2023/10/25 08:14:27;;;;;;;6.90;6.20;;;11.20;99.90;;;;;;5132953;27;20199;-73
2023/10/25 08:16:53;;;;;;;6.83;5.43;;;11.30;99.90;;;;;;5133064;27;20683;-73
2023/10/25 08:19:19;;;;;;;5.83;5.23;;;11.50;99.90;;;;;;5133317;27;20305;-72
2023/10/25 08:21:45;;;;;;;6.97;5.03;;;11.60;99.90;;;;;;5133525;27;20201;-73
2023/10/25 08:24:10;;;;;;;6.43;4.70;;;11.60;99.90;;;;;;5133539;27;20164;-73
2023/10/25 08:26:39;;;;;;;11.70;5.23;;;11.80;99.90;;;;;;5133277;27;20290;-73
2023/10/25 08:29:06;;;;;;;10.97;6.40;;;12.00;99.90;;;;;;5133301;27;20184;-71
2023/10/25 08:31:33;;;;;;;5.27;4.87;;;12.10;99.90;;;;;;5133467;27;20171;-72
2023/10/25 08:33:59;;;;;;;5.90;4.57;;;12.10;99.90;;;;;;5133175;27;20546;-73
2023/10/25 08:36:25;;;;;;;5.10;4.50;;;12.00;99.90;;;;;;5132873;27;20195;-72
2023/10/25 08:38:50;;;;;;;5.10;4.50;;;12.00;99.90;;;;;;5132675;27;20196;-72
2023/10/25 08:41:19;;;;;;;6.07;4.20;;;11.90;99.90;;;;;;5132903;27;20164;-72
2023/10/25 08:43:45;;;;;;;7.40;4.23;;;11.80;99.90;;;;;;5132747;27;20171;-72
2023/10/25 08:46:13;;;;;;;4.67;3.90;;;11.70;99.90;;;;;;5132618;27;20672;-72
2023/10/25 08:48:38;;;;;;;6.13;4.20;;;11.70;99.90;;;;;;5132500;27;20606;-72
2023/10/25 08:51:05;;;;;;;4.50;4.07;;;11.60;99.90;;;;;;5133198;27;20168;-72
2023/10/25 08:53:31;;;;;;;5.90;4.50;;;11.50;99.90;;;;;;5132741;27;20156;-72
2023/10/25 08:55:58;;;;;;;8.80;6.00;;;11.40;99.90;;;;;;5132564;27;20224;-71
2023/10/25 08:58:25;;;;;;;7.33;4.53;;;11.30;99.90;;;;;;5132113;27;20218;-71
2023/10/25 09:00:52;;;;;;;4.83;4.33;;;11.20;99.90;;;;;;5132489;27;20200;-72
2023/10/25 09:03:33;;;;;;;5.03;4.57;;;11.10;99.90;;;;;;5132678;27;20168;-71
2023/10/25 09:06:02;;;;;;;7.80;4.50;;;11.00;99.90;;;;;;5132435;27;20199;-72
2023/10/25 09:08:28;;;;;;;5.70;4.47;;;10.90;99.90;;;;;;5132074;27;20200;-72
2023/10/25 09:10:55;;;;;;;4.63;4.27;;;10.90;99.90;;;;;;5131612;27;20259;-72
2023/10/25 09:13:21;;;;;;;7.40;4.30;;;10.80;99.90;;;;;;5131464;27;20650;-72
2023/10/25 09:15:46;;;;;;;5.83;4.10;;;10.70;99.90;;;;;;5131271;27;20201;-71
2023/10/25 09:18:12;;;;;;;4.60;4.20;;;10.70;99.90;;;;;;5130867;27;20208;-72
2023/10/25 09:20:37;;;;;;;9.03;4.57;;;10.70;99.90;;;;;;5132120;27;20168;-72
2023/10/25 09:23:10;;;;;;;4.67;4.33;;;10.70;99.90;;;;;;5132290;27;20636;-71
2023/10/25 09:25:38;;;;;;;5.77;4.90;;;10.70;99.90;;;;;;5130825;27;20180;-71
2023/10/25 09:28:13;;;;;;;6.93;4.77;;;10.70;99.90;;;;;;5131835;27;20203;-72
2023/10/25 09:30:39;;;;;;;5.83;4.97;;;10.80;99.90;;;;;;5132335;27;20179;-71
2023/10/25 09:33:04;;;;;;;4.80;4.40;;;10.90;99.90;;;;;;5132378;27;20176;-71
2023/10/25 09:35:31;;;;;;;5.13;4.73;;;10.90;99.90;;;;;;5132060;27;20259;-71
2023/10/25 09:37:57;;;;;;;5.03;4.50;;;11.00;99.90;;;;;;5131356;27;20586;-72
2023/10/25 09:40:23;;;;;;;6.17;4.40;;;11.00;99.90;;;;;;5131974;27;20186;-71
2023/10/25 09:42:56;;;;;;;4.80;4.40;;;11.10;99.90;;;;;;5131863;27;20168;-71
2023/10/25 09:45:27;;;;;;;4.83;4.33;;;11.10;99.90;;;;;;5132033;27;20172;-72
2023/10/25 09:47:59;;;;;;;5.97;4.60;;;11.20;99.90;;;;;;5131795;27;20270;-72
2023/10/25 09:50:37;;;;;;;5.07;4.67;;;11.20;99.90;;;;;;5132246;27;20183;-71
2023/10/25 09:53:20;;;;;;;5.43;4.70;;;11.20;99.90;;;;;;5132037;27;20205;-72
2023/10/25 09:55:54;;;;;;;5.03;4.53;;;11.30;99.90;;;;;;5132052;27;20179;-72
2023/10/25 09:58:22;;;;;;;5.20;4.20;;;11.30;99.90;;;;;;5131526;27;20183;-71
2023/10/25 10:00:48;;;;;;;4.83;4.23;;;11.30;99.90;;;;;;5132139;27;20168;-72
2023/10/25 10:03:45;;;;;;;4.93;4.47;;;11.30;99.90;;;;;;5132084;27;20175;-71
2023/10/25 10:06:29;;;;;;;4.67;4.20;;;11.30;99.90;;;;;;5131540;27;20188;-73
2023/10/25 10:09:13;;;;;;;4.50;4.20;;;11.40;99.90;;;;;;5131641;27;20211;-71
2023/10/25 10:11:45;;;;;;;5.07;4.57;;;11.50;99.90;;;;;;5131871;27;20168;-72
2023/10/25 10:14:29;;;;;;;4.97;4.57;;;11.50;99.90;;;;;;5134504;27;20171;-71
2023/10/25 10:17:14;;;;;;;4.50;4.20;;;11.50;99.90;;;;;;5135422;27;20167;-71
2023/10/25 10:19:46;;;;;;;5.20;4.40;;;11.50;99.90;;;;;;5135827;27;20661;-72
2023/10/25 10:22:18;;;;;;;4.93;4.47;;;11.50;99.90;;;;;;5135362;27;20172;-72
2023/10/25 10:24:53;;;;;;;5.30;4.83;;;11.40;99.90;;;;;;5135502;27;20572;-71
2023/10/25 10:27:26;;;;;;;6.33;4.70;;;11.40;99.90;;;;;;5134802;27;20199;-71
2023/10/25 10:29:52;;;;;;;4.87;4.47;;;11.30;99.90;;;;;;5135328;27;20251;-72
2023/10/25 10:32:18;;;;;;;4.83;4.47;;;11.30;99.90;;;;;;5134946;27;20210;-72
2023/10/25 10:34:57;;;;;;;4.90;4.50;;;11.20;99.90;;;;;;5135304;27;20192;-72
2023/10/25 10:37:29;;;;;;;5.20;4.80;;;11.20;99.90;;;;;;5134797;27;20905;-73
2023/10/25 10:39:57;;;;;;;5.00;4.60;;;11.10;99.90;;;;;;5135397;27;20168;-71
2023/10/25 10:42:30;;;;;;;5.53;5.13;;;11.10;99.90;;;;;;5135033;27;20648;-72
2023/10/25 10:45:00;;;;;;;5.30;4.80;;;11.10;99.90;;;;;;5135226;27;20164;-72
2023/10/25 10:48:06;;;;;;;5.73;5.03;;;11.00;99.90;;;;;;5134657;27;20279;-74
2023/10/25 10:50:32;;;;;;;10.43;5.50;;;10.90;99.90;;;;;;5117243;27;20176;-72
2023/10/25 10:52:59;;;;;;;10.53;5.40;;;10.90;99.90;;;;;;5114567;27;20173;-72
2023/10/25 10:55:25;;;;;;;6.80;6.30;;;10.80;99.90;;;;;;5134249;27;20203;-72
2023/10/25 10:57:52;;;;;;;7.87;5.90;;;10.80;99.90;;;;;;5134622;27;20215;-72
2023/10/25 11:00:18;;;;;;;6.37;5.87;;;10.80;99.90;;;;;;5134728;27;20238;-72
2023/10/25 11:02:48;;;;;;;7.63;6.30;;;10.80;99.90;;;;;;5129366;27;20212;-71
2023/10/25 11:05:20;;;;;;;6.50;5.90;;;10.80;99.90;;;;;;5114316;28;20172;-72
2023/10/25 11:07:48;;;;;;;6.33;5.73;;;10.80;99.90;;;;;;5113747;28;20204;-72
2023/10/25 11:10:14;;;;;;;10.60;6.87;;;10.80;99.90;;;;;;5113946;28;20172;-72
2023/10/25 11:12:40;;;;;;;14.27;6.97;;;10.70;99.90;;;;;;5114506;27;20168;-72
2023/10/25 11:15:06;;;;;;;7.73;6.53;;;10.70;99.90;;;;;;5134732;27;20184;-72
2023/10/25 11:17:34;;;;;;;8.37;7.20;;;10.80;99.90;;;;;;5132173;27;20184;-72
2023/10/25 11:20:00;;;;;;;9.30;8.40;;;10.70;99.90;;;;;;5134415;27;20645;-72
2023/10/25 11:22:26;;;;;;;8.50;7.60;;;10.70;99.90;;;;;;5134620;27;20672;-72
2023/10/25 11:24:52;;;;;;;11.20;7.93;;;10.70;99.90;;;;;;5134299;27;20256;-72
2023/10/25 11:27:18;;;;;;;10.47;8.10;;;10.70;99.90;;;;;;5133606;27;20195;-73
2023/10/25 11:29:45;;;;;;;9.07;8.23;;;10.70;99.90;;;;;;5134594;27;20168;-72
2023/10/25 11:32:14;;;;;;;10.17;9.17;;;10.70;99.90;;;;;;5134024;27;20156;-72
2023/10/25 11:34:46;;;;;;;9.60;8.70;;;10.70;99.90;;;;;;5134122;27;20172;-72
2023/10/25 11:37:12;;;;;;;9.30;8.50;;;10.80;99.90;;;;;;5133663;27;20563;-72
2023/10/25 11:40:04;;;;;;;10.53;9.43;;;10.70;99.90;;;;;;5133835;27;20192;-73
2023/10/25 11:42:32;;;;;;;11.00;9.33;;;10.70;99.90;;;;;;5118222;27;20177;-72
2023/10/25 11:45:03;;;;;;;10.10;8.90;;;10.80;99.90;;;;;;5113432;28;20259;-72
2023/10/25 11:47:31;;;;;;;10.87;9.57;;;10.80;99.90;;;;;;5112628;28;20200;-73
2023/10/25 11:49:58;;;;;;;11.30;9.50;;;10.80;99.90;;;;;;5113623;28;20165;-73
2023/10/25 11:52:29;;;;;;;10.50;9.50;;;10.70;99.90;;;;;;5113128;28;20279;-72
2023/10/25 11:54:56;;;;;;;11.03;9.93;;;10.70;99.90;;;;;;5113202;28;20374;-73
2023/10/25 11:57:29;;;;;;;11.50;10.23;;;10.80;99.90;;;;;;5112428;28;20207;-73
2023/10/25 11:59:56;;;;;;;11.63;10.30;;;10.70;99.90;;;;;;5113254;28;20218;-73
2023/10/25 12:02:24;;;;;;;11.00;10.10;;;10.80;99.90;;;;;;5112665;28;20314;-73
2023/10/25 12:04:50;;;;;;;10.60;9.57;;;10.80;99.90;;;;;;5112997;27;20165;-73
2023/10/25 12:07:16;;;;;;;11.20;9.60;;;10.80;99.90;;;;;;5112440;28;20226;-73
2023/10/25 12:09:42;;;;;;;12.33;11.03;;;10.80;99.90;;;;;;5120838;27;20509;-73
2023/10/25 12:12:09;;;;;;;10.73;9.70;;;10.80;99.90;;;;;;5133196;27;20156;-73
2023/10/25 12:14:35;;;;;;;11.30;10.20;;;10.90;99.90;;;;;;5133346;27;20195;-73
2023/10/25 12:17:01;;;;;;;10.50;9.40;;;10.90;99.90;;;;;;5133023;27;20207;-73
2023/10/25 12:19:26;;;;;;;9.43;8.53;;;10.90;99.90;;;;;;5133266;27;20367;-73
2023/10/25 12:21:57;;;;;;;10.77;9.67;;;11.00;99.90;;;;;;5133170;27;20176;-73
2023/10/25 12:24:23;;;;;;;10.67;9.00;;;11.00;99.90;;;;;;5125158;27;20522;-74
2023/10/25 12:26:49;;;;;;;10.03;9.03;;;11.00;99.90;;;;;;5112395;28;20196;-74
2023/10/25 12:29:15;;;;;;;9.80;8.90;;;11.00;99.90;;;;;;5112472;28;20562;-75
2023/10/25 12:31:40;;;;;;;10.97;9.17;;;11.10;99.90;;;;;;5112512;28;20203;-74
2023/10/25 12:34:06;;;;;;;9.67;8.77;;;11.10;99.90;;;;;;5112325;27;20731;-74
2023/10/25 12:51:08;;;;;;;11.07;8.97;;;11.10;99.90;;;;;;5068495;28;20565;-74
2023/10/25 12:53:34;;;;;;;11.93;8.90;;;11.60;99.90;;;;;;5068351;28;20182;-73
2023/10/25 12:55:59;;;;;;;10.23;8.63;;;11.50;99.90;;;;;;5066152;28;20205;-73
2023/10/25 12:58:25;;;;;;;10.70;8.47;;;11.40;99.90;;;;;;5064126;28;20652;-73
2023/10/25 13:00:51;;;;;;;8.87;7.97;;;11.30;99.90;;;;;;5047580;28;20171;-74
2023/10/25 13:03:17;;;;;;;9.07;7.70;;;11.20;99.90;;;;;;5076485;23;20256;-74
2023/10/25 13:05:43;;;;;;;9.20;7.97;;;11.20;99.90;;;;;;5067939;28;20194;-74
2023/10/25 13:08:09;;;;;;;10.30;8.57;;;11.20;99.90;;;;;;5067931;28;20162;-74
2023/10/25 13:10:35;;;;;;;9.17;8.17;;;11.10;99.90;;;;;;5067840;28;20566;-74